Terminal Aerodrome Forecast
Issued by NWS Sterling, VA

Current Version | Previous Version | Text Only | Print | Product List | Glossary Off
Versions: 1 2 3 4 5 6 7 8 9 10 11 12 13 14 15 16 17

027
FTUS41 KLWX 280836 AAA
TAFMRB
TAF AMD
KMRB 280836Z 2809/2906 VRB03KT P6SM BKN008
     FM281400 09005KT P6SM BKN025
     FM282100 09006KT 3SM SHRA BR OVC008=

USA.gov is the U.S. government's official web portal to all federal, state and local government web resources and services.